createdAt,value
2023-05-24T00:00:13.377Z,18.29
2023-05-24T00:02:57.301Z,18.48
2023-05-24T00:05:41.058Z,18.45
2023-05-24T00:08:15.424Z,18.21
2023-05-24T00:10:57.563Z,18.41
2023-05-24T00:13:30.460Z,18.21
2023-05-24T00:16:12.717Z,18.40
2023-05-24T00:18:47.226Z,18.21
2023-05-24T00:21:29.651Z,18.42
2023-05-24T00:24:02.289Z,18.22
2023-05-24T00:26:46.164Z,18.44
2023-05-24T00:29:18.680Z,18.24
2023-05-24T00:32:02.374Z,18.45
2023-05-24T00:34:35.612Z,18.23
2023-05-24T00:37:20.263Z,18.40
2023-05-24T00:40:05.112Z,18.39
2023-05-24T00:42:37.717Z,18.10
2023-05-24T00:45:20.363Z,18.27
2023-05-24T00:47:54.293Z,17.97
2023-05-24T00:50:36.651Z,18.17
2023-05-24T00:53:10.742Z,17.91
2023-05-24T00:55:56.262Z,18.13
2023-05-24T00:58:31.282Z,17.88
2023-05-24T01:01:16.676Z,18.09
2023-05-24T01:04:01.022Z,17.99
2023-05-24T01:06:40.714Z,17.89
2023-05-24T01:09:29.084Z,18.16
2023-05-24T01:12:31.947Z,17.96
2023-05-24T01:15:18.604Z,18.25
2023-05-24T01:18:15.796Z,18.23
2023-05-24T01:20:50.727Z,18.00
2023-05-24T01:23:55.003Z,18.23
2023-05-24T01:26:45.642Z,18.00
2023-05-24T01:29:30.110Z,18.27
2023-05-24T01:32:04.519Z,18.03
2023-05-24T01:34:48.906Z,18.28
2023-05-24T01:37:21.487Z,18.08
2023-05-24T01:40:06.567Z,18.31
2023-05-24T01:42:52.673Z,18.13
2023-05-24T01:45:38.436Z,18.37
2023-05-24T01:48:18.317Z,18.13
2023-05-24T01:51:04.056Z,18.39
2023-05-24T01:53:39.374Z,18.16
2023-05-24T01:56:22.966Z,18.41
2023-05-24T01:58:59.863Z,18.19
2023-05-24T02:01:42.745Z,18.43
2023-05-24T02:04:15.817Z,18.23
2023-05-24T02:07:00.976Z,18.48
2023-05-24T02:09:34.251Z,18.26
2023-05-24T02:12:18.094Z,18.53
2023-05-24T02:14:51.254Z,18.30
2023-05-24T02:17:36.054Z,18.54
2023-05-24T02:20:09.771Z,18.33
2023-05-24T02:22:54.887Z,18.56
2023-05-24T02:25:29.165Z,18.07
2023-05-24T02:28:13.361Z,18.51
2023-05-24T02:30:46.128Z,18.32
2023-05-24T02:33:30.351Z,18.58
2023-05-24T02:36:13.122Z,18.60
2023-05-24T02:38:46.038Z,18.41
2023-05-24T02:41:19.037Z,18.41
2023-05-24T02:44:03.654Z,18.67
2023-05-24T02:46:36.456Z,18.46
2023-05-24T02:49:18.578Z,18.74
2023-05-24T02:52:02.662Z,18.78
2023-05-24T02:54:46.921Z,18.84
2023-05-24T02:57:19.739Z,18.63
2023-05-24T03:00:02.327Z,18.89
2023-05-24T03:02:38.608Z,18.73
2023-05-24T03:05:21.484Z,19.00
2023-05-24T03:07:54.141Z,18.86
2023-05-24T03:10:38.405Z,19.18
2023-05-24T03:13:12.172Z,19.05
2023-05-24T03:15:54.230Z,19.37
2023-05-24T03:18:38.486Z,19.46
2023-05-24T03:21:11.665Z,19.26
2023-05-24T03:23:58.138Z,19.52
2023-05-24T03:26:43.583Z,19.50
2023-05-24T03:29:16.136Z,19.26
2023-05-24T03:32:00.296Z,19.51
2023-05-24T03:34:47.025Z,19.53
2023-05-24T03:37:31.126Z,19.61
2023-05-24T03:40:05.625Z,19.45
2023-05-24T03:43:09.016Z,19.82
2023-05-24T03:45:52.897Z,19.90
2023-05-24T03:48:25.695Z,19.74
2023-05-24T03:51:10.099Z,20.08
2023-05-24T03:53:53.823Z,20.24
2023-05-24T03:56:27.339Z,20.03
2023-05-24T03:59:11.446Z,20.26
2023-05-24T04:01:44.590Z,20.03
2023-05-24T04:04:27.040Z,20.36
2023-05-24T04:07:13.912Z,20.47
2023-05-24T04:09:56.473Z,20.37
2023-05-24T04:12:28.956Z,20.39
2023-05-24T04:15:01.934Z,20.54
2023-05-24T04:17:47.113Z,20.86
2023-05-24T04:20:20.805Z,20.58
2023-05-24T04:23:04.205Z,20.81
2023-05-24T04:25:46.394Z,20.81
2023-05-24T04:28:19.200Z,20.55
2023-05-24T04:30:53.993Z,20.55
2023-05-24T04:33:39.793Z,20.83
2023-05-24T04:36:26.268Z,20.84
2023-05-24T04:39:02.005Z,20.54
2023-05-24T04:41:44.595Z,20.84
2023-05-24T04:44:17.676Z,20.66
2023-05-24T04:47:01.120Z,20.99
2023-05-24T04:49:33.803Z,20.88
2023-05-24T04:52:17.970Z,21.27
2023-05-24T04:55:00.206Z,21.40
2023-05-24T04:57:34.647Z,21.36
2023-05-24T05:00:18.804Z,21.91
2023-05-24T05:02:52.546Z,22.10
2023-05-24T05:05:25.347Z,22.47
2023-05-24T05:08:09.871Z,23.16
2023-05-24T05:10:42.830Z,23.42
2023-05-24T05:13:25.322Z,24.04
2023-05-24T05:15:58.108Z,24.00
2023-05-24T05:18:41.914Z,24.41
2023-05-24T05:21:14.749Z,24.21
2023-05-24T05:23:58.832Z,24.55
2023-05-24T05:26:32.409Z,24.28
2023-05-24T05:29:14.758Z,24.67
2023-05-24T05:31:48.206Z,24.51
2023-05-24T05:34:32.533Z,24.96
2023-05-24T05:37:05.390Z,24.90
2023-05-24T05:39:49.615Z,25.45
2023-05-24T05:42:22.541Z,25.29
2023-05-24T05:45:07.202Z,25.73
2023-05-24T05:47:40.740Z,25.40
2023-05-24T05:50:26.093Z,25.76
2023-05-24T05:52:58.713Z,24.88
2023-05-24T05:55:40.988Z,25.62
2023-05-24T05:58:13.901Z,25.48
2023-05-24T06:00:59.376Z,25.93
2023-05-24T06:03:32.216Z,25.59
2023-05-24T06:06:14.376Z,25.94
2023-05-24T06:08:47.371Z,25.67
2023-05-24T06:11:29.569Z,26.01
2023-05-24T06:14:02.949Z,25.69
2023-05-24T06:16:54.687Z,26.13
2023-05-24T06:19:27.677Z,26.02
2023-05-24T06:22:11.502Z,26.52
2023-05-24T06:24:44.440Z,26.25
2023-05-24T06:27:28.743Z,26.60
2023-05-24T06:30:01.532Z,26.18
2023-05-24T06:32:46.268Z,26.57
2023-05-24T06:35:19.628Z,26.29
2023-05-24T06:38:23.406Z,26.78
2023-05-24T06:40:56.158Z,26.36
2023-05-24T06:43:38.873Z,26.68
2023-05-24T06:46:11.546Z,26.35
2023-05-24T06:48:56.293Z,26.71
2023-05-24T06:51:29.343Z,26.40
2023-05-24T06:54:13.547Z,26.87
2023-05-24T06:56:46.278Z,26.60
2023-05-24T06:59:29.989Z,27.13
2023-05-24T07:02:14.193Z,27.32
2023-05-24T07:04:47.893Z,27.16
2023-05-24T07:07:32.654Z,27.72
2023-05-24T07:10:06.370Z,27.46
2023-05-24T07:12:49.994Z,28.03
2023-05-24T07:15:23.014Z,27.85
2023-05-24T07:18:05.718Z,28.34
2023-05-24T07:20:38.744Z,28.04
2023-05-24T07:23:22.830Z,28.35
2023-05-24T07:25:55.495Z,27.84
2023-05-24T07:28:28.217Z,27.74
2023-05-24T07:31:12.021Z,28.15
2023-05-24T07:33:44.796Z,27.84
2023-05-24T07:36:31.585Z,28.34
2023-05-24T07:39:06.300Z,28.00
2023-05-24T07:41:51.188Z,28.41
2023-05-24T07:44:24.316Z,27.97
2023-05-24T07:47:07.023Z,28.29
2023-05-24T07:49:39.981Z,27.79
2023-05-24T07:52:24.596Z,28.08
2023-05-24T07:54:57.287Z,27.52
2023-05-24T07:57:41.241Z,27.82
2023-05-24T08:00:17.444Z,27.34
2023-05-24T08:03:01.973Z,27.75
2023-05-24T08:05:46.333Z,27.78
2023-05-24T08:08:19.729Z,27.45
2023-05-24T08:11:03.688Z,27.91
2023-05-24T08:13:36.592Z,27.63
2023-05-24T08:16:19.728Z,28.09
2023-05-24T08:18:54.920Z,27.85
2023-05-24T08:21:38.505Z,28.40
2023-05-24T08:24:11.928Z,28.25
2023-05-24T08:26:55.897Z,28.92
2023-05-24T08:29:28.815Z,28.87
2023-05-24T08:32:12.713Z,29.50
2023-05-24T08:35:06.726Z,29.80
2023-05-24T08:37:32.830Z,29.66
2023-05-24T08:40:16.733Z,30.13
2023-05-24T08:43:03.187Z,30.06
2023-05-24T08:45:38.752Z,29.54
2023-05-24T08:48:25.176Z,29.89
2023-05-24T08:50:59.627Z,29.28
2023-05-24T08:53:52.017Z,29.47
2023-05-24T08:56:27.168Z,28.79
2023-05-24T08:59:13.182Z,29.00
2023-05-24T09:01:47.924Z,27.54
2023-05-24T09:04:32.280Z,28.22
2023-05-24T09:07:18.292Z,28.19
2023-05-24T09:10:07.727Z,27.67
2023-05-24T09:12:59.518Z,27.94
2023-05-24T09:15:32.809Z,27.34
2023-05-24T09:18:17.336Z,27.69
2023-05-24T09:20:50.161Z,27.37
2023-05-24T09:23:34.931Z,27.91
2023-05-24T09:26:12.032Z,27.81
2023-05-24T09:28:58.089Z,28.48
2023-05-24T09:31:38.288Z,28.57
2023-05-24T09:34:23.061Z,29.28
2023-05-24T09:36:56.538Z,29.35
2023-05-24T09:39:42.362Z,30.03
2023-05-24T09:42:21.266Z,29.75
2023-05-24T09:45:09.679Z,30.13
2023-05-24T09:47:54.745Z,30.10
2023-05-24T09:50:27.970Z,29.69
2023-05-24T09:53:13.119Z,30.18
2023-05-24T09:55:46.931Z,29.97
2023-05-24T09:58:33.771Z,30.66
2023-05-24T10:01:08.827Z,30.64
2023-05-24T10:03:57.992Z,31.18
2023-05-24T10:06:45.416Z,31.28
2023-05-24T10:09:34.182Z,31.49
2023-05-24T10:12:09.405Z,31.33
2023-05-24T10:14:53.523Z,32.04
2023-05-24T10:17:27.759Z,31.67
2023-05-24T10:20:12.487Z,32.17
2023-05-24T10:22:47.345Z,31.60
2023-05-24T10:25:30.730Z,31.97
2023-05-24T10:28:06.649Z,31.39
2023-05-24T10:31:03.380Z,31.73
2023-05-24T10:33:49.097Z,31.46
2023-05-24T10:36:23.060Z,29.59
2023-05-24T10:39:08.533Z,30.52
2023-05-24T10:41:42.513Z,30.13
2023-05-24T10:44:29.375Z,30.45
2023-05-24T10:47:13.455Z,29.71
2023-05-24T10:50:02.467Z,29.58
2023-05-24T10:52:47.879Z,30.06
2023-05-24T10:55:22.081Z,29.77
2023-05-24T10:58:07.315Z,30.18
2023-05-24T11:00:53.455Z,30.11
2023-05-24T11:03:26.733Z,29.31
2023-05-24T11:06:11.694Z,29.39
2023-05-24T11:08:45.166Z,28.61
2023-05-24T11:11:32.175Z,28.69
2023-05-24T11:14:04.516Z,28.07
2023-05-24T11:16:52.111Z,28.30
2023-05-24T11:19:28.393Z,27.82
2023-05-24T11:22:13.780Z,28.08
2023-05-24T11:24:45.963Z,27.59
2023-05-24T11:27:18.495Z,27.88
2023-05-24T11:30:02.369Z,27.75
2023-05-24T11:32:35.727Z,27.26
2023-05-24T11:35:22.496Z,27.52
2023-05-24T11:37:55.428Z,27.19
2023-05-24T11:40:41.056Z,27.58
2023-05-24T11:43:24.771Z,27.79
2023-05-24T11:45:58.066Z,27.72
2023-05-24T11:48:42.449Z,28.28
2023-05-24T11:51:15.422Z,28.04
2023-05-24T11:54:01.302Z,28.38
2023-05-24T11:56:34.471Z,28.01
2023-05-24T11:59:29.948Z,28.36
2023-05-24T12:02:06.967Z,28.06
2023-05-24T12:04:50.931Z,28.51
2023-05-24T12:07:25.545Z,28.40
2023-05-24T12:10:10.797Z,28.99
2023-05-24T12:12:46.802Z,28.55
2023-05-24T12:15:29.010Z,29.44
2023-05-24T12:18:02.141Z,29.23
2023-05-24T12:20:51.163Z,29.60
2023-05-24T12:23:27.646Z,29.39
2023-05-24T12:26:15.070Z,30.16
2023-05-24T12:28:58.935Z,30.55
2023-05-24T12:31:31.629Z,30.37
2023-05-24T12:34:22.853Z,30.64
2023-05-24T12:36:57.408Z,29.83
2023-05-24T12:39:44.496Z,29.84
2023-05-24T12:42:17.156Z,29.01
2023-05-24T12:44:50.989Z,29.22
2023-05-24T12:47:33.624Z,29.04
2023-05-24T12:50:06.684Z,28.56
2023-05-24T12:52:55.232Z,28.80
2023-05-24T12:55:39.356Z,28.64
2023-05-24T12:58:13.591Z,28.21
2023-05-24T13:00:57.700Z,28.42
2023-05-24T13:03:46.332Z,28.32
2023-05-24T13:06:19.360Z,27.82
2023-05-24T13:09:02.146Z,27.98
2023-05-24T13:11:34.818Z,27.51
2023-05-24T13:14:20.064Z,27.70
2023-05-24T13:16:53.166Z,27.26
2023-05-24T13:19:36.979Z,27.44
2023-05-24T13:22:09.861Z,26.98
2023-05-24T13:24:53.634Z,27.27
2023-05-24T13:27:26.867Z,27.09
2023-05-24T13:30:01.295Z,27.49
2023-05-24T13:32:43.403Z,27.90
2023-05-24T13:35:16.725Z,27.86
2023-05-24T13:38:02.624Z,28.43
2023-05-24T13:40:35.466Z,28.16
2023-05-24T13:43:19.454Z,29.32
2023-05-24T13:45:52.669Z,29.62
2023-05-24T13:48:35.084Z,30.02
2023-05-24T13:51:07.705Z,29.38
2023-05-24T13:53:52.252Z,29.55
2023-05-24T13:56:37.370Z,29.53
2023-05-24T13:59:11.044Z,29.32
2023-05-24T14:01:54.826Z,29.91
2023-05-24T14:04:38.570Z,30.03
2023-05-24T14:07:23.350Z,29.97
2023-05-24T14:09:57.184Z,29.39
2023-05-24T14:12:30.278Z,29.12
2023-05-24T14:15:18.518Z,29.22
2023-05-24T14:17:51.620Z,28.39
2023-05-24T14:20:34.413Z,28.42
2023-05-24T14:23:10.744Z,27.82
2023-05-24T14:25:55.061Z,28.01
2023-05-24T14:28:27.827Z,27.54
2023-05-24T14:31:11.741Z,27.78
2023-05-24T14:33:44.917Z,27.40
2023-05-24T14:36:26.992Z,27.68
2023-05-24T14:38:59.716Z,27.35
2023-05-24T14:41:43.670Z,28.16
2023-05-24T14:44:16.507Z,28.06
2023-05-24T14:46:59.231Z,28.37
2023-05-24T14:49:31.838Z,27.92
2023-05-24T14:52:14.078Z,28.25
2023-05-24T14:54:46.966Z,27.90
2023-05-24T14:57:31.737Z,28.15
2023-05-24T15:00:05.237Z,27.65
2023-05-24T15:02:49.733Z,27.89
2023-05-24T15:05:22.583Z,27.42
2023-05-24T15:08:06.031Z,27.59
2023-05-24T15:10:40.926Z,27.09
2023-05-24T15:13:26.290Z,27.25
2023-05-24T15:16:00.604Z,26.14
2023-05-24T15:18:45.974Z,26.66
2023-05-24T15:21:30.114Z,26.58
2023-05-24T15:24:02.685Z,26.17
2023-05-24T15:26:47.549Z,26.41
2023-05-24T15:29:20.409Z,25.99
2023-05-24T15:32:02.618Z,26.21
2023-05-24T15:34:46.462Z,26.12
2023-05-24T15:37:21.000Z,25.69
2023-05-24T15:40:08.125Z,25.86
2023-05-24T15:42:41.332Z,25.43
2023-05-24T15:45:25.046Z,25.60
2023-05-24T15:47:57.776Z,25.18
2023-05-24T15:51:22.129Z,25.36
2023-05-24T15:53:18.730Z,24.93
2023-05-24T15:56:04.808Z,25.13
2023-05-24T15:58:37.879Z,24.73
2023-05-24T16:01:21.818Z,24.88
2023-05-24T16:03:54.726Z,24.52
2023-05-24T16:06:39.240Z,24.71
2023-05-24T16:09:11.841Z,24.35
2023-05-24T16:11:54.048Z,24.54
2023-05-24T16:14:26.898Z,24.22
2023-05-24T16:17:10.705Z,24.42
2023-05-24T16:19:55.254Z,24.39
2023-05-24T16:22:28.424Z,24.09
2023-05-24T16:25:13.644Z,24.32
2023-05-24T16:27:46.448Z,24.04
2023-05-24T16:30:30.653Z,24.24
2023-05-24T16:33:03.806Z,23.96
2023-05-24T16:35:48.744Z,24.19
2023-05-24T16:38:22.132Z,23.82
2023-05-24T16:41:07.803Z,24.01
2023-05-24T16:43:50.041Z,23.90
2023-05-24T16:46:24.012Z,23.58
2023-05-24T16:49:08.481Z,23.77
2023-05-24T16:51:41.340Z,23.47
2023-05-24T16:54:23.625Z,23.64
2023-05-24T16:56:56.911Z,23.36
2023-05-24T16:59:42.666Z,23.55
2023-05-24T17:02:16.852Z,23.34
2023-05-24T17:05:00.522Z,23.54
2023-05-24T17:07:34.104Z,23.27
2023-05-24T17:10:17.997Z,23.48
2023-05-24T17:12:51.209Z,23.18
2023-05-24T17:15:36.874Z,23.39
2023-05-24T17:18:09.676Z,22.84
2023-05-24T17:20:52.071Z,23.21
2023-05-24T17:23:26.748Z,22.94
2023-05-24T17:26:11.779Z,23.19
2023-05-24T17:28:46.519Z,22.91
2023-05-24T17:31:30.701Z,23.06
2023-05-24T17:34:03.561Z,22.77
2023-05-24T17:36:47.365Z,22.97
2023-05-24T17:39:21.402Z,22.70
2023-05-24T17:42:07.668Z,22.86
2023-05-24T17:44:40.485Z,22.57
2023-05-24T17:47:24.744Z,22.74
2023-05-24T17:49:57.926Z,22.43
2023-05-24T17:52:41.606Z,22.61
2023-05-24T17:55:14.591Z,22.34
2023-05-24T17:58:00.166Z,22.56
2023-05-24T18:00:33.074Z,22.32
2023-05-24T18:03:15.488Z,22.52
2023-05-24T18:05:48.339Z,22.29
2023-05-24T18:08:32.807Z,22.51
2023-05-24T18:11:16.653Z,22.50
2023-05-24T18:13:49.670Z,22.27
2023-05-24T18:16:33.390Z,22.48
2023-05-24T18:19:06.059Z,22.24
2023-05-24T18:21:50.829Z,22.45
2023-05-24T18:24:23.559Z,22.18
2023-05-24T18:27:07.550Z,22.37
2023-05-24T18:29:40.142Z,22.10
2023-05-24T18:32:24.046Z,22.30
2023-05-24T18:34:57.227Z,22.07
2023-05-24T18:37:41.377Z,22.26
2023-05-24T18:40:18.108Z,22.00
2023-05-24T18:43:01.668Z,22.26
2023-05-24T18:45:34.182Z,21.95
2023-05-24T18:48:17.873Z,22.14
2023-05-24T18:50:51.130Z,21.88
2023-05-24T18:53:36.441Z,22.09
2023-05-24T18:56:09.046Z,21.83
2023-05-24T18:58:54.270Z,22.03
2023-05-24T19:01:28.366Z,21.80
2023-05-24T19:04:10.554Z,21.99
2023-05-24T19:06:43.558Z,21.79
2023-05-24T19:09:26.356Z,21.98
2023-05-24T19:12:14.997Z,22.00
2023-05-24T19:14:47.729Z,21.75
2023-05-24T19:17:32.840Z,21.96
2023-05-24T19:20:05.554Z,21.69
2023-05-24T19:22:49.196Z,21.87
2023-05-24T19:25:21.932Z,21.58
2023-05-24T19:28:07.174Z,21.74
2023-05-24T19:30:40.003Z,21.42
2023-05-24T19:33:24.111Z,21.56
2023-05-24T19:35:56.734Z,21.20
2023-05-24T19:38:38.791Z,21.34
2023-05-24T19:41:21.040Z,21.26
2023-05-24T19:44:04.665Z,21.15
2023-05-24T19:46:37.720Z,20.82
2023-05-24T19:49:21.539Z,20.94
2023-05-24T19:51:54.092Z,20.60
2023-05-24T19:54:36.198Z,20.73
2023-05-24T19:57:11.366Z,20.41
2023-05-24T19:59:53.371Z,20.54
2023-05-24T20:02:36.994Z,20.44
2023-05-24T20:05:09.766Z,20.14
2023-05-24T20:07:53.951Z,20.27
2023-05-24T20:10:28.304Z,19.99
2023-05-24T20:13:12.835Z,20.16
2023-05-24T20:15:56.498Z,20.08
2023-05-24T20:18:29.187Z,19.83
2023-05-24T20:21:14.952Z,19.99
2023-05-24T20:23:58.730Z,19.95
2023-05-24T20:26:33.418Z,19.71
2023-05-24T20:29:18.450Z,19.87
2023-05-24T20:31:51.423Z,19.61
2023-05-24T20:34:36.129Z,19.78
2023-05-24T20:37:09.446Z,19.52
2023-05-24T20:39:53.322Z,19.68
2023-05-24T20:42:26.585Z,19.42
2023-05-24T20:45:10.857Z,19.58
2023-05-24T20:47:53.059Z,19.52
2023-05-24T20:50:25.959Z,19.26
2023-05-24T20:53:09.826Z,19.42
2023-05-24T20:55:42.667Z,19.18
2023-05-24T20:58:27.894Z,19.34
2023-05-24T21:01:00.485Z,19.16
2023-05-24T21:03:42.839Z,19.35
2023-05-24T21:06:15.816Z,19.11
2023-05-24T21:09:01.269Z,19.28
2023-05-24T21:11:33.528Z,19.06
2023-05-24T21:14:06.063Z,19.18
2023-05-24T21:16:48.358Z,19.23
2023-05-24T21:19:21.012Z,19.00
2023-05-24T21:22:03.038Z,19.17
2023-05-24T21:24:35.986Z,18.93
2023-05-24T21:27:20.352Z,19.11
2023-05-24T21:30:04.541Z,19.09
2023-05-24T21:32:37.309Z,18.87
2023-05-24T21:35:21.436Z,19.07
2023-05-24T21:37:54.356Z,18.90
2023-05-24T21:40:26.985Z,18.94
2023-05-24T21:43:12.078Z,19.14
2023-05-24T21:45:45.092Z,18.93
2023-05-24T21:48:17.952Z,18.91
2023-05-24T21:51:00.447Z,19.04
2023-05-24T21:53:44.205Z,18.97
2023-05-24T21:56:17.038Z,18.72
2023-05-24T21:59:00.677Z,18.87
2023-05-24T22:01:33.381Z,18.64
2023-05-24T22:04:17.651Z,18.81
2023-05-24T22:07:01.231Z,18.78
2023-05-24T22:09:44.748Z,18.75
2023-05-24T22:12:17.686Z,18.49
2023-05-24T22:14:50.620Z,18.45
2023-05-24T22:17:24.827Z,18.42
2023-05-24T22:20:07.711Z,18.57
2023-05-24T22:22:53.850Z,18.53
2023-05-24T22:25:26.904Z,18.25
2023-05-24T22:28:10.584Z,18.41
2023-05-24T22:30:43.129Z,18.22
2023-05-24T22:33:25.265Z,18.38
2023-05-24T22:35:57.909Z,18.15
2023-05-24T22:38:41.747Z,18.30
2023-05-24T22:41:15.128Z,18.03
2023-05-24T22:43:59.872Z,18.18
2023-05-24T22:46:32.707Z,17.93
2023-05-24T22:49:18.148Z,18.10
2023-05-24T22:51:52.985Z,17.83
2023-05-24T22:54:37.005Z,18.02
2023-05-24T22:57:10.912Z,17.67
2023-05-24T22:59:54.822Z,18.00
2023-05-24T23:02:29.419Z,17.79
2023-05-24T23:05:11.749Z,17.99
2023-05-24T23:07:44.518Z,17.76
2023-05-24T23:10:26.898Z,17.96
2023-05-24T23:13:00.169Z,17.71
2023-05-24T23:15:44.079Z,17.90
2023-05-24T23:18:18.436Z,17.67
2023-05-24T23:21:03.749Z,17.84
2023-05-24T23:23:37.890Z,17.58
2023-05-24T23:26:23.242Z,17.76
2023-05-24T23:28:56.077Z,17.49
2023-05-24T23:31:28.599Z,17.46
2023-05-24T23:34:13.005Z,17.65
2023-05-24T23:36:58.070Z,17.68
2023-05-24T23:39:30.681Z,17.51
2023-05-24T23:42:14.424Z,17.76
2023-05-24T23:44:47.146Z,17.59
2023-05-24T23:47:31.270Z,17.85
2023-05-24T23:50:03.847Z,17.70
2023-05-24T23:52:49.583Z,17.96
2023-05-24T23:55:23.265Z,17.78
2023-05-24T23:58:08.040Z,18.03
